PATC/TNC METAR and TAF weather

Enter ICAO airport designator
Station Type Date Time Source
PATC METAR 2022/07/03 15:16 UTC NOAA

PATC 031516Z AUTO 03003KT 10SM BKN018 OVC035 12/10 A2996 RMK AO2 SLP146


Station Type Date Time Source
PATC Decoded METAR 2022/07/03 15:16 UTC NOAA

Tin City Airways Facilities Sector, AK, United States (PATC) 65-34N 167-55W
Jul 03, 2022 - 11:16 AM EDT / 2022.07.03 1516 UTC
Wind: from the NNE (030 degrees) at 3 MPH (3 KT):0
Visibility: 10 mile(s):0
Sky conditions: overcast
Temperature: 53 F (12 C)
Dew Point: 50 F (10 C)
Relative Humidity: 87%
Pressure (altimeter): 29.96 in. Hg (1014 hPa)
ob: PATC 031516Z AUTO 03003KT 10SM BKN018 OVC035 12/10 A2996 RMK AO2 SLP146
cycle: 15

Station Type Date Time Source
PATC TAF 2016/08/27 04:12 UTC NOAA

TAF PATC 270400Z 2704/2810 18012G18KT 0400 FG OVC002 QNH3015INS TX10/2718Z TN06/2710Z

Example: see airport list